Time;durP1;ratioP1;P1;durP2;ratioP2;P2;SDS_P1;SDS_P2;PMS_P1;PMS_P2;Temp;Humidity;BMP_temperature;BMP_pressure;BME280_temperature;BME280_humidity;BME280_pressure;Samples;Min_cycle;Max_cycle;Signal;HPM_P1;HPM_P2
2023/05/05 00:01:06;;;;;;;10.10;5.70;;;18.50;99.90;;;;;;4964968;28;20196;-83
2023/05/05 00:03:36;;;;;;;7.33;5.40;;;18.50;99.90;;;;;;4974862;28;20528;-84
2023/05/05 00:06:01;;;;;;;7.97;6.43;;;18.50;99.90;;;;;;4972187;28;20777;-82
2023/05/05 00:08:27;;;;;;;10.03;5.97;;;18.50;99.90;;;;;;4976216;28;20525;-80
2023/05/05 00:10:53;;;;;;;7.70;6.30;;;18.50;99.90;;;;;;4959093;28;20660;-83
2023/05/05 00:13:19;;;;;;;8.00;5.87;;;18.50;99.90;;;;;;4960319;28;20291;-82
2023/05/05 00:15:47;;;;;;;7.60;6.80;;;18.50;99.90;;;;;;4970431;28;20811;-81
2023/05/05 00:18:15;;;;;;;8.93;6.60;;;18.50;99.90;;;;;;4976582;28;21083;-81
2023/05/05 00:20:41;;;;;;;7.73;6.67;;;18.50;99.90;;;;;;4976071;28;20509;-82
2023/05/05 00:23:07;;;;;;;7.30;6.20;;;18.50;99.90;;;;;;4976163;28;20495;-83
2023/05/05 00:25:32;;;;;;;7.43;6.73;;;18.50;99.90;;;;;;4973235;28;20483;-81
2023/05/05 00:27:58;;;;;;;7.00;6.30;;;18.40;99.90;;;;;;4976746;28;20183;-81
2023/05/05 00:30:23;;;;;;;6.97;6.27;;;18.40;99.90;;;;;;4975757;28;20182;-82
2023/05/05 00:32:49;;;;;;;7.50;6.80;;;18.40;99.90;;;;;;4971680;28;20197;-83
2023/05/05 00:35:16;;;;;;;7.27;6.50;;;18.40;99.90;;;;;;4974561;28;20235;-81
2023/05/05 00:37:42;;;;;;;8.77;7.10;;;18.40;99.90;;;;;;4957446;28;21515;-83
2023/05/05 00:40:08;;;;;;;12.17;7.53;;;18.40;99.90;;;;;;4975526;28;20438;-81
2023/05/05 00:42:47;;;;;;;8.40;7.13;;;18.40;99.90;;;;;;4967651;28;20343;-82
2023/05/05 00:45:17;;;;;;;8.07;7.27;;;18.40;99.90;;;;;;4969943;28;20534;-82
2023/05/05 00:47:50;;;;;;;8.37;7.50;;;18.40;99.90;;;;;;4979809;28;20433;-82
2023/05/05 00:50:23;;;;;;;8.00;7.20;;;18.30;99.90;;;;;;4958703;28;20451;-80
2023/05/05 00:52:51;;;;;;;8.23;7.53;;;18.30;99.90;;;;;;4978579;28;20444;-82
2023/05/05 00:55:17;;;;;;;9.60;8.00;;;18.30;99.90;;;;;;4980858;28;20542;-83
2023/05/05 00:57:44;;;;;;;9.83;7.30;;;18.30;99.90;;;;;;4979243;28;20506;-84
2023/05/05 01:00:10;;;;;;;9.60;6.77;;;18.30;99.90;;;;;;4978969;28;20455;-83
2023/05/05 01:02:37;;;;;;;7.70;6.90;;;18.20;99.90;;;;;;4979959;28;20985;-82
2023/05/05 01:05:03;;;;;;;8.50;7.17;;;18.20;99.90;;;;;;4980378;28;20438;-81
2023/05/05 01:07:42;;;;;;;9.50;7.80;;;18.20;99.90;;;;;;4958040;28;20479;-84
2023/05/05 01:10:28;;;;;;;9.03;7.40;;;18.10;99.90;;;;;;4979785;28;20454;-82
2023/05/05 01:13:15;;;;;;;7.90;7.10;;;18.10;99.90;;;;;;4962726;28;20450;-84
2023/05/05 01:15:50;;;;;;;9.87;7.73;;;18.00;99.90;;;;;;4974442;28;20453;-82
2023/05/05 01:18:29;;;;;;;10.47;9.37;;;18.00;99.90;;;;;;4980368;28;20508;-82
2023/05/05 01:21:20;;;;;;;8.77;7.97;;;17.90;99.90;;;;;;4979136;28;20792;-83
2023/05/05 01:23:57;;;;;;;10.07;8.13;;;17.90;99.90;;;;;;4955058;28;20473;-83
2023/05/05 01:26:55;;;;;;;8.87;7.97;;;17.80;99.90;;;;;;4981006;28;20896;-83
2023/05/05 01:29:38;;;;;;;14.37;8.27;;;17.80;99.90;;;;;;4974969;28;20498;-82
2023/05/05 01:32:09;;;;;;;9.83;8.40;;;17.80;99.90;;;;;;4972666;28;20501;-82
2023/05/05 01:34:43;;;;;;;13.70;8.77;;;17.70;99.90;;;;;;4954444;28;20498;-85
2023/05/05 01:37:16;;;;;;;7.63;6.93;;;17.70;99.90;;;;;;4972160;28;20481;-82
2023/05/05 01:39:43;;;;;;;8.90;7.63;;;17.70;99.90;;;;;;4978167;28;20870;-83
2023/05/05 01:42:13;;;;;;;11.27;8.40;;;17.70;99.90;;;;;;4973828;28;20479;-80
2023/05/05 01:44:42;;;;;;;9.90;8.87;;;17.60;99.90;;;;;;4976230;28;20455;-82
2023/05/05 01:47:14;;;;;;;9.73;8.73;;;17.60;99.90;;;;;;4973609;28;20442;-84
2023/05/05 01:49:43;;;;;;;9.73;8.73;;;17.60;99.90;;;;;;4964816;28;20474;-84
2023/05/05 01:52:09;;;;;;;9.47;7.73;;;17.50;99.90;;;;;;4979211;28;20459;-82
2023/05/05 01:54:36;;;;;;;10.33;8.43;;;17.50;1.00;;;;;;4976884;28;20483;-82
2023/05/05 01:57:03;;;;;;;10.37;8.90;;;17.40;1.00;;;;;;4972155;28;20428;-83
2023/05/05 01:59:31;;;;;;;9.33;8.27;;;17.40;1.00;;;;;;4950312;28;20483;-86
2023/05/05 02:01:58;;;;;;;11.50;8.93;;;17.40;1.00;;;;;;4972952;28;20974;-84
2023/05/05 02:04:26;;;;;;;11.97;10.73;;;17.30;1.00;;;;;;4980540;28;21136;-85
2023/05/05 02:06:53;;;;;;;13.00;10.60;;;17.30;1.00;;;;;;4972773;28;20964;-84
2023/05/05 02:09:20;;;;;;;11.73;10.30;;;17.30;1.00;;;;;;4962631;28;20808;-86
2023/05/05 02:11:46;;;;;;;12.40;11.10;;;17.30;1.00;;;;;;4975054;28;20608;-84
2023/05/05 02:14:12;;;;;;;13.93;11.00;;;17.30;1.00;;;;;;4969111;28;20546;-84
2023/05/05 02:16:40;;;;;;;14.20;10.90;;;17.20;1.00;;;;;;4976565;28;20180;-81
2023/05/05 02:19:06;;;;;;;11.83;10.63;;;17.30;26.00;;;;;;4979088;28;20467;-83
2023/05/05 02:21:32;;;;;;;13.87;12.37;;;17.20;88.50;;;;;;4977874;28;20462;-84
2023/05/05 02:23:59;;;;;;;14.27;12.30;;;17.20;99.90;;;;;;4971433;28;20520;-82
2023/05/05 02:26:25;;;;;;;14.40;12.07;;;17.20;99.90;;;;;;4975708;28;20847;-81
2023/05/05 02:29:11;;;;;;;14.90;12.93;;;17.20;99.90;;;;;;4977507;28;20450;-85
2023/05/05 02:31:42;;;;;;;17.27;11.83;;;17.20;99.90;;;;;;4963479;28;20479;-78
2023/05/05 02:34:10;;;;;;;15.10;13.53;;;17.20;99.90;;;;;;4957488;29;20547;-84
2023/05/05 02:36:38;;;;;;;17.03;13.60;;;17.20;99.90;;;;;;4974127;28;20481;-80
2023/05/05 02:39:11;;;;;;;14.90;13.30;;;17.10;99.90;;;;;;4972135;28;20454;-83
2023/05/05 02:41:38;;;;;;;16.00;14.27;;;17.10;99.90;;;;;;4970956;28;20470;-83
2023/05/05 02:44:06;;;;;;;16.63;13.47;;;17.00;99.90;;;;;;4972936;28;20437;-83
2023/05/05 02:46:32;;;;;;;14.83;13.03;;;17.10;99.90;;;;;;4975796;28;20942;-83
2023/05/05 02:48:58;;;;;;;16.57;14.70;;;17.00;99.90;;;;;;4978843;28;20523;-81
2023/05/05 02:51:24;;;;;;;19.00;14.10;;;17.00;99.90;;;;;;4978734;28;20836;-83
2023/05/05 02:53:51;;;;;;;16.10;14.40;;;16.90;99.90;;;;;;4974453;28;20460;-81
2023/05/05 02:56:28;;;;;;;20.77;15.57;;;16.90;99.90;;;;;;4978761;28;20490;-84
2023/05/05 02:59:09;;;;;;;16.73;14.90;;;16.90;99.90;;;;;;4959131;28;20479;-84
2023/05/05 03:02:14;;;;;;;16.17;14.47;;;16.80;99.90;;;;;;4956674;28;21112;-82
2023/05/05 03:04:58;;;;;;;16.37;14.77;;;16.80;99.90;;;;;;4971987;28;20463;-83
2023/05/05 03:08:14;;;;;;;17.20;14.83;;;16.70;1.00;;;;;;4948530;28;20439;-81
2023/05/05 03:10:51;;;;;;;19.37;14.43;;;16.70;1.00;;;;;;4937539;28;20919;-80
2023/05/05 03:13:21;;;;;;;19.03;14.63;;;16.60;99.90;;;;;;4972249;28;20471;-80
2023/05/05 03:15:50;;;;;;;16.37;14.67;;;16.60;1.00;;;;;;4963784;28;20438;-82
2023/05/05 03:18:17;;;;;;;14.83;13.23;;;16.50;1.00;;;;;;4951450;28;20520;-81
2023/05/05 03:20:43;;;;;;;16.83;14.60;;;16.50;1.00;;;;;;4974268;28;20471;-82
2023/05/05 03:23:09;;;;;;;16.70;15.00;;;16.40;1.00;;;;;;4969954;28;20449;-81
2023/05/05 03:25:42;;;;;;;17.27;15.30;;;16.40;1.00;;;;;;4973813;28;20186;-82
2023/05/05 03:28:07;;;;;;;15.90;14.30;;;16.30;21.80;;;;;;4969606;28;20444;-81
2023/05/05 03:30:33;;;;;;;17.50;14.80;;;16.30;30.70;;;;;;4974897;28;20465;-84
2023/05/05 03:32:59;;;;;;;17.67;15.17;;;16.20;99.90;;;;;;4948847;28;20226;-81
2023/05/05 03:35:24;;;;;;;16.03;13.67;;;16.20;99.90;;;;;;4966154;28;20187;-82
2023/05/05 03:37:50;;;;;;;18.90;15.50;;;16.20;99.90;;;;;;4966878;28;20197;-83
2023/05/05 03:40:15;;;;;;;17.47;14.70;;;16.10;99.90;;;;;;4972084;28;20215;-82
2023/05/05 03:42:41;;;;;;;15.03;13.43;;;16.10;99.90;;;;;;4977468;28;20191;-83
2023/05/05 03:45:07;;;;;;;15.90;14.03;;;16.10;99.90;;;;;;4966470;28;20191;-82
2023/05/05 03:47:33;;;;;;;15.80;13.50;;;16.00;1.00;;;;;;4955437;28;20568;-83
2023/05/05 03:49:59;;;;;;;19.20;14.50;;;16.00;1.00;;;;;;4973072;28;20693;-83
2023/05/05 03:52:25;;;;;;;15.53;13.10;;;16.00;1.00;;;;;;4976293;28;20454;-81
2023/05/05 03:54:50;;;;;;;16.27;13.93;;;15.90;1.00;;;;;;4974364;28;20521;-80
2023/05/05 03:57:16;;;;;;;15.63;12.80;;;16.00;1.00;;;;;;4963858;28;20342;-81
2023/05/05 03:59:41;;;;;;;15.63;12.73;;;15.90;1.00;;;;;;4975756;28;20193;-81
2023/05/05 04:02:07;;;;;;;14.47;12.50;;;16.00;1.00;;;;;;4973331;28;20207;-81
2023/05/05 04:04:33;;;;;;;15.73;13.40;;;16.00;1.00;;;;;;4975143;28;20180;-81
2023/05/05 04:06:58;;;;;;;15.53;13.00;;;16.00;1.00;;;;;;4975406;28;20199;-81
2023/05/05 04:09:24;;;;;;;14.70;13.00;;;16.00;1.00;;;;;;4975788;28;20178;-81
2023/05/05 04:11:49;;;;;;;16.07;13.60;;;16.00;1.00;;;;;;4974700;28;20214;-80
2023/05/05 04:14:15;;;;;;;18.83;13.00;;;16.00;1.00;;;;;;4972309;28;20322;-81
2023/05/05 04:16:41;;;;;;;15.60;13.77;;;16.00;1.00;;;;;;4964390;28;20485;-81
2023/05/05 04:19:06;;;;;;;16.03;12.80;;;16.00;1.00;;;;;;4969089;28;20191;-80
2023/05/05 04:21:32;;;;;;;16.50;14.80;;;16.00;1.00;;;;;;4968408;28;20211;-81
2023/05/05 04:23:57;;;;;;;15.80;13.97;;;16.10;1.00;;;;;;4965836;28;20430;-81
2023/05/05 04:26:23;;;;;;;21.73;14.87;;;16.20;1.00;;;;;;4967606;28;20186;-81
2023/05/05 04:28:49;;;;;;;17.83;14.20;;;16.20;1.00;;;;;;4979378;28;20259;-81
2023/05/05 04:31:14;;;;;;;17.03;13.60;;;16.20;1.00;;;;;;4944748;28;1019853;-80
2023/05/05 04:33:40;;;;;;;15.60;13.90;;;16.30;1.00;;;;;;4978834;28;20256;-81
2023/05/05 04:36:06;;;;;;;19.80;15.33;;;16.30;1.00;;;;;;4976618;28;20253;-81
2023/05/05 04:38:31;;;;;;;17.97;14.80;;;16.30;1.00;;;;;;4973260;28;20258;-81
2023/05/05 04:40:57;;;;;;;21.40;14.07;;;16.40;1.00;;;;;;4962735;28;20212;-80
2023/05/05 04:43:22;;;;;;;20.80;15.33;;;16.40;1.00;;;;;;4974581;28;20176;-79
2023/05/05 04:45:52;;;;;;;28.97;15.20;;;16.50;1.00;;;;;;4980569;28;20227;-79
2023/05/05 04:48:19;;;;;;;35.47;14.10;;;16.50;1.00;;;;;;4963075;28;20180;-80
2023/05/05 04:50:45;;;;;;;24.47;14.70;;;16.60;1.00;;;;;;4964626;28;20809;-81
2023/05/05 04:53:11;;;;;;;18.93;15.10;;;16.70;99.90;;;;;;4974594;28;20482;-82
2023/05/05 04:55:37;;;;;;;18.80;13.73;;;16.70;99.90;;;;;;4969592;28;20451;-81
2023/05/05 04:58:03;;;;;;;97.47;18.50;;;16.80;99.90;;;;;;4961468;28;20588;-81
2023/05/05 05:00:28;;;;;;;24.90;13.30;;;16.90;99.90;;;;;;4977582;28;20458;-81
2023/05/05 05:02:54;;;;;;;15.93;13.27;;;17.00;99.90;;;;;;4972698;28;20198;-81
2023/05/05 05:05:20;;;;;;;18.57;14.13;;;17.10;25.60;;;;;;4981248;28;20186;-81
2023/05/05 05:07:46;;;;;;;19.80;14.83;;;17.30;1.00;;;;;;4971853;28;20438;-80
2023/05/05 05:10:11;;;;;;;29.70;14.70;;;17.30;1.00;;;;;;4978583;28;20192;-81
2023/05/05 05:12:37;;;;;;;17.47;13.97;;;17.40;1.00;;;;;;4965994;28;20209;-81
2023/05/05 05:15:03;;;;;;;26.93;13.90;;;17.40;1.00;;;;;;4968813;28;20213;-81
2023/05/05 05:17:29;;;;;;;19.60;13.73;;;17.50;1.00;;;;;;4973263;28;20864;-81
2023/05/05 05:19:55;;;;;;;38.93;14.90;;;17.60;99.90;;;;;;4968156;28;20435;-81
2023/05/05 05:22:21;;;;;;;42.00;16.20;;;17.70;99.90;;;;;;4973601;28;20439;-82
2023/05/05 05:24:46;;;;;;;43.23;15.20;;;17.80;99.90;;;;;;4977542;28;20445;-81
2023/05/05 05:27:12;;;;;;;30.40;15.90;;;17.90;99.90;;;;;;4971835;28;20191;-81
2023/05/05 05:29:37;;;;;;;20.23;13.80;;;18.10;99.90;;;;;;4979116;28;20192;-81
2023/05/05 05:32:03;;;;;;;16.50;13.77;;;18.30;99.90;;;;;;4976561;28;20255;-81
2023/05/05 05:34:29;;;;;;;17.10;14.17;;;19.30;1.00;;;;;;4972463;28;20246;-81
2023/05/05 05:36:54;;;;;;;16.50;13.57;;;20.90;1.00;;;;;;4978090;28;20209;-81
2023/05/05 05:39:20;;;;;;;14.93;13.53;;;21.40;99.90;;;;;;4981368;28;20184;-81
2023/05/05 05:41:46;;;;;;;16.53;14.03;;;22.20;99.90;;;;;;4977862;28;20215;-82
2023/05/05 05:44:11;;;;;;;16.17;14.50;;;23.20;99.90;;;;;;4972116;28;20189;-81
2023/05/05 05:46:37;;;;;;;16.63;13.70;;;24.00;99.90;;;;;;4955222;28;20188;-82
2023/05/05 05:49:02;;;;;;;12.90;11.70;;;25.90;99.90;;;;;;4980124;28;20220;-82
2023/05/05 05:51:29;;;;;;;13.20;11.77;;;28.40;99.90;;;;;;4982622;28;20231;-83
2023/05/05 05:53:55;;;;;;;13.80;11.07;;;30.10;99.90;;;;;;4975115;28;20203;-82
2023/05/05 05:56:20;;;;;;;13.07;11.50;;;30.80;99.90;;;;;;4969058;28;20954;-83
2023/05/05 05:58:47;;;;;;;13.10;11.80;;;31.60;99.90;;;;;;4966792;28;20527;-83
2023/05/05 06:01:13;;;;;;;11.37;10.23;;;32.70;99.90;;;;;;4967797;28;20207;-83
2023/05/05 06:03:38;;;;;;;12.00;10.80;;;34.80;99.90;;;;;;4980601;28;20439;-83
2023/05/05 06:06:04;;;;;;;13.13;11.60;;;36.50;99.90;;;;;;4977165;28;20677;-84
2023/05/05 06:08:30;;;;;;;12.30;10.47;;;37.80;99.90;;;;;;4971040;28;20235;-84
2023/05/05 06:10:55;;;;;;;12.83;11.30;;;39.60;99.90;;;;;;4974778;28;20216;-83
2023/05/05 06:13:21;;;;;;;12.80;11.67;;;40.40;99.90;;;;;;4968904;28;20220;-83
2023/05/05 06:15:46;;;;;;;14.03;10.20;;;41.20;99.90;;;;;;4973014;28;20168;-83
2023/05/05 06:18:12;;;;;;;13.43;12.07;;;42.00;99.90;;;;;;4978868;28;20212;-84
2023/05/05 06:20:38;;;;;;;13.80;12.30;;;41.70;99.90;;;;;;4973671;28;20208;-83
2023/05/05 06:23:03;;;;;;;12.80;11.60;;;41.60;99.90;;;;;;4976378;28;20203;-84
2023/05/05 06:25:29;;;;;;;13.53;11.80;;;43.60;99.90;;;;;;4967228;28;20594;-84
2023/05/05 06:27:55;;;;;;;24.13;12.20;;;44.90;99.90;;;;;;4969549;28;20283;-83
2023/05/05 06:30:21;;;;;;;11.90;10.90;;;46.00;99.90;;;;;;4968585;28;20436;-84
2023/05/05 06:32:46;;;;;;;12.83;10.93;;;47.00;99.90;;;;;;4976585;28;20207;-84
2023/05/05 06:35:12;;;;;;;11.97;10.93;;;47.40;99.90;;;;;;4972888;28;20490;-83
2023/05/05 06:37:37;;;;;;;12.83;11.80;;;46.70;99.90;;;;;;4972330;28;20621;-83
2023/05/05 06:40:04;;;;;;;14.67;12.97;;;45.70;99.90;;;;;;4977570;28;20265;-82
2023/05/05 06:42:31;;;;;;;16.00;12.07;;;45.90;99.90;;;;;;4975362;28;20226;-84
2023/05/05 06:44:56;;;;;;;12.53;11.43;;;45.50;99.90;;;;;;4968153;28;20474;-83
2023/05/05 06:47:22;;;;;;;13.13;11.80;;;45.90;99.90;;;;;;4976697;28;20420;-83
2023/05/05 06:49:47;;;;;;;12.57;11.40;;;45.30;98.30;;;;;;4970637;28;20239;-83
2023/05/05 06:52:13;;;;;;;13.40;12.23;;;45.70;97.80;;;;;;4968609;28;20279;-83
2023/05/05 06:54:38;;;;;;;12.87;11.67;;;44.40;94.00;;;;;;4963132;28;20188;-83
2023/05/05 06:57:04;;;;;;;14.67;13.37;;;43.10;91.00;;;;;;4973501;28;20264;-83
2023/05/05 06:59:29;;;;;;;15.67;14.27;;;41.80;87.20;;;;;;4969804;28;20199;-83
2023/05/05 07:01:55;;;;;;;14.97;13.57;;;40.00;81.50;;;;;;4953793;28;20251;-80
2023/05/05 07:04:20;;;;;;;16.23;14.83;;;37.50;75.00;;;;;;4971039;28;20192;-80
2023/05/05 07:06:46;;;;;;;16.17;14.67;;;35.90;71.10;;;;;;4979015;28;20243;-80
2023/05/05 07:09:11;;;;;;;15.83;14.53;;;34.40;68.10;;;;;;4959446;28;20666;-82
2023/05/05 07:11:37;;;;;;;17.30;15.80;;;33.20;67.80;;;;;;4953796;28;20204;-82
2023/05/05 07:14:02;;;;;;;15.50;14.00;;;32.20;67.50;;;;;;4962801;28;20196;-82
2023/05/05 07:16:28;;;;;;;16.20;14.67;;;33.20;77.70;;;;;;4976894;28;20671;-82
2023/05/05 07:18:53;;;;;;;15.10;13.50;;;35.90;88.60;;;;;;4975737;28;20625;-83
2023/05/05 07:21:19;;;;;;;15.00;13.60;;;37.10;91.60;;;;;;4972324;28;20213;-82
2023/05/05 07:23:46;;;;;;;14.73;13.43;;;37.80;92.80;;;;;;4965320;28;20232;-82
2023/05/05 07:26:12;;;;;;;15.53;14.10;;;38.70;94.20;;;;;;4974274;28;20184;-83
2023/05/05 07:28:38;;;;;;;13.97;12.57;;;36.90;89.80;;;;;;4961267;28;20468;-83
2023/05/05 07:31:03;;;;;;;15.23;13.50;;;36.00;86.00;;;;;;4960652;28;20507;-82
2023/05/05 07:33:29;;;;;;;13.30;12.10;;;36.50;89.80;;;;;;4970389;28;20235;-82
2023/05/05 07:35:55;;;;;;;12.40;11.10;;;36.30;89.70;;;;;;4971214;28;20200;-83
2023/05/05 07:38:20;;;;;;;13.50;11.63;;;36.80;91.50;;;;;;4971796;28;20282;-83
2023/05/05 07:40:46;;;;;;;12.17;10.97;;;39.10;95.70;;;;;;4973872;28;20216;-83
2023/05/05 07:43:11;;;;;;;10.53;9.63;;;41.20;98.00;;;;;;4972414;28;20267;-84
2023/05/05 07:45:36;;;;;;;11.23;10.40;;;43.30;99.60;;;;;;4956280;28;20187;-83
2023/05/05 07:48:02;;;;;;;12.67;11.40;;;43.80;97.50;;;;;;4975471;28;20307;-83
2023/05/05 07:50:28;;;;;;;12.50;11.20;;;44.00;96.20;;;;;;4975485;28;20188;-83
2023/05/05 07:52:53;;;;;;;12.07;11.17;;;43.20;93.30;;;;;;4973274;28;20185;-83
2023/05/05 07:55:19;;;;;;;13.60;12.40;;;41.20;87.10;;;;;;4974158;28;20196;-83
2023/05/05 07:57:44;;;;;;;10.63;9.73;;;40.30;83.50;;;;;;4977699;28;20188;-83
2023/05/05 08:00:12;;;;;;;10.50;9.60;;;39.30;80.30;;;;;;4971650;28;20203;-83
2023/05/05 08:02:37;;;;;;;10.97;7.93;;;40.30;84.50;;;;;;4955557;28;20203;-83
2023/05/05 08:05:03;;;;;;;10.97;9.97;;;41.10;86.80;;;;;;4980754;28;20477;-83
2023/05/05 08:07:29;;;;;;;11.30;10.27;;;41.50;86.90;;;;;;4979484;28;20271;-83
2023/05/05 08:09:54;;;;;;;9.47;8.57;;;40.50;82.20;;;;;;4981830;28;20184;-82
2023/05/05 08:12:20;;;;;;;11.93;10.87;;;39.10;75.10;;;;;;4981026;28;20232;-82
2023/05/05 08:14:45;;;;;;;10.80;9.50;;;39.50;79.60;;;;;;4981122;28;20196;-83
2023/05/05 08:17:11;;;;;;;11.90;10.70;;;38.20;73.60;;;;;;4971834;28;20275;-83
2023/05/05 08:19:36;;;;;;;12.90;11.90;;;37.00;70.40;;;;;;4975070;28;20200;-83
2023/05/05 08:22:02;;;;;;;11.53;10.60;;;35.80;67.10;;;;;;4967712;28;20212;-83
2023/05/05 08:24:27;;;;;;;11.40;10.30;;;36.60;73.20;;;;;;4976214;28;20219;-83
2023/05/05 08:26:54;;;;;;;11.73;10.00;;;38.20;80.90;;;;;;4963240;28;20191;-83
2023/05/05 08:29:20;;;;;;;10.73;9.83;;;40.10;88.70;;;;;;4956714;28;20243;-82
2023/05/05 08:31:45;;;;;;;11.87;10.80;;;41.60;90.50;;;;;;4973670;28;20479;-81
2023/05/05 08:34:11;;;;;;;10.60;9.70;;;41.60;88.90;;;;;;4977683;28;20271;-83
2023/05/05 08:36:36;;;;;;;10.67;9.57;;;40.80;83.80;;;;;;4979922;28;20194;-83
2023/05/05 08:39:02;;;;;;;9.97;7.73;;;39.50;77.60;;;;;;4978563;28;20849;-81
2023/05/05 08:41:27;;;;;;;10.30;8.90;;;39.80;79.40;;;;;;4975370;28;20246;-80
2023/05/05 08:43:53;;;;;;;8.00;7.20;;;39.70;78.40;;;;;;4980960;28;20755;-80
2023/05/05 08:46:19;;;;;;;7.03;6.43;;;41.70;86.20;;;;;;4977345;28;20215;-81
2023/05/05 08:48:46;;;;;;;7.67;6.97;;;42.70;87.30;;;;;;4980695;28;20658;-81
2023/05/05 08:51:19;;;;;;;8.00;5.80;;;41.90;81.10;;;;;;4972673;28;20471;-80
2023/05/05 08:53:53;;;;;;;6.10;5.60;;;40.70;75.20;;;;;;4974635;28;20605;-81
2023/05/05 08:56:25;;;;;;;5.90;5.40;;;39.50;70.60;;;;;;4979466;28;20446;-80
2023/05/05 08:58:51;;;;;;;9.27;5.40;;;38.80;68.30;;;;;;4981277;28;20439;-80
2023/05/05 09:01:17;;;;;;;17.10;6.40;;;37.90;63.80;;;;;;4976913;28;20810;-81
2023/05/05 09:03:43;;;;;;;13.07;8.57;;;37.60;63.30;;;;;;4973059;28;20849;-82
2023/05/05 09:06:09;;;;;;;9.40;7.60;;;37.10;63.80;;;;;;4980498;28;20191;-82
2023/05/05 09:08:38;;;;;;;65.70;9.17;;;38.20;70.30;;;;;;4976565;28;20451;-82
2023/05/05 09:11:04;;;;;;;58.53;36.83;;;38.00;69.60;;;;;;4971281;28;20966;-81
2023/05/05 09:13:30;;;;;;;40.10;8.40;;;37.60;68.00;;;;;;4973169;28;20544;-82
2023/05/05 09:15:57;;;;;;;41.63;6.70;;;37.60;68.20;;;;;;4980211;28;20191;-82
2023/05/05 09:18:22;;;;;;;38.60;7.03;;;37.60;69.20;;;;;;4975315;28;20452;-81
2023/05/05 09:20:48;;;;;;;33.83;6.10;;;37.70;68.80;;;;;;4979982;28;20570;-82
2023/05/05 10:41:28;;;;;;;42.50;6.00;;;29.20;50.40;;;;;;5961281;23;20373;-80
2023/05/05 10:43:57;;;;;;;38.03;5.53;;;28.80;51.90;;;;;;4916900;29;20494;-82
2023/05/05 10:46:25;;;;;;;36.57;4.40;;;28.50;53.60;;;;;;4944291;29;20893;-82
2023/05/05 10:49:09;;;;;;;34.60;5.00;;;28.10;54.40;;;;;;4933595;29;20445;-81
2023/05/05 10:51:40;;;;;;;29.30;3.80;;;27.70;54.90;;;;;;4937227;29;20457;-81
2023/05/05 10:54:19;;;;;;;23.30;4.10;;;27.30;56.10;;;;;;4935672;29;20437;-77
2023/05/05 10:56:46;;;;;;;23.97;4.03;;;26.90;56.70;;;;;;4947831;29;20441;-80
2023/05/05 10:59:36;;;;;;;13.00;3.90;;;26.50;59.20;;;;;;4933329;29;20452;-79
2023/05/05 11:02:18;;;;;;;4.17;3.10;;;26.40;60.10;;;;;;4927107;29;20461;-80
2023/05/05 11:05:08;;;;;;;4.30;3.00;;;26.20;63.90;;;;;;4928904;29;20481;-79
2023/05/05 11:07:35;;;;;;;4.17;3.30;;;26.00;67.60;;;;;;4927600;29;20448;-79
2023/05/05 11:10:03;;;;;;;6.33;3.10;;;25.90;70.00;;;;;;4938887;29;20432;-79
2023/05/05 11:12:30;;;;;;;4.87;3.40;;;25.70;73.10;;;;;;4936439;29;20472;-78
2023/05/05 11:15:29;;;;;;;7.73;4.07;;;25.60;77.30;;;;;;4937946;29;20489;-79
2023/05/05 11:18:02;;;;;;;8.03;5.53;;;25.50;82.30;;;;;;4934076;29;20463;-78
2023/05/05 11:20:51;;;;;;;9.13;6.33;;;25.30;84.90;;;;;;4928692;29;20456;-78
2023/05/05 11:23:19;;;;;;;7.43;6.60;;;25.00;89.70;;;;;;4937383;29;20440;-79
2023/05/05 11:25:46;;;;;;;8.97;5.90;;;24.80;91.80;;;;;;4935901;29;21024;-79
2023/05/05 11:28:20;;;;;;;7.20;4.97;;;24.70;92.30;;;;;;4937042;29;20441;-79
2023/05/05 11:30:54;;;;;;;6.90;5.40;;;24.60;93.50;;;;;;4932094;29;20600;-78
2023/05/05 11:33:29;;;;;;;8.53;5.47;;;24.60;95.00;;;;;;4935684;29;20438;-79
2023/05/05 11:36:01;;;;;;;5.53;3.77;;;24.70;96.10;;;;;;4951083;28;20439;-79
2023/05/05 11:38:36;;;;;;;7.50;3.30;;;24.80;96.60;;;;;;4946973;28;20472;-79
2023/05/05 11:41:13;;;;;;;9.10;3.40;;;24.90;97.10;;;;;;4935523;29;20522;-79
2023/05/05 11:43:41;;;;;;;7.00;3.70;;;25.10;97.70;;;;;;4932445;29;20469;-78
2023/05/05 11:46:15;;;;;;;7.60;3.53;;;25.40;99.10;;;;;;4935528;29;20451;-79
2023/05/05 11:48:53;;;;;;;4.30;2.87;;;25.70;99.90;;;;;;4936326;29;20444;-79
2023/05/05 11:51:19;;;;;;;4.30;2.80;;;26.00;99.90;;;;;;4937061;29;20556;-79
2023/05/05 11:53:46;;;;;;;5.67;2.57;;;26.30;99.90;;;;;;4937319;29;20481;-79
2023/05/05 11:56:17;;;;;;;4.50;2.50;;;26.40;99.90;;;;;;4930868;29;20204;-79
2023/05/05 11:58:44;;;;;;;6.67;3.77;;;26.60;99.90;;;;;;4935554;29;20453;-79
2023/05/05 12:01:10;;;;;;;3.60;2.80;;;27.00;99.90;;;;;;4933816;29;20934;-80
2023/05/05 12:03:37;;;;;;;10.83;2.90;;;27.40;99.90;;;;;;4935357;29;20469;-79
2023/05/05 12:06:03;;;;;;;4.10;2.13;;;28.00;99.90;;;;;;4936624;29;20923;-80
2023/05/05 12:08:39;;;;;;;2.60;1.67;;;28.60;99.90;;;;;;4940340;29;20838;-80
2023/05/05 12:11:07;;;;;;;3.03;1.70;;;29.10;99.90;;;;;;4937663;29;20461;-79
2023/05/05 12:13:33;;;;;;;3.83;2.03;;;29.00;99.90;;;;;;4929795;29;20506;-79
2023/05/05 12:16:12;;;;;;;5.47;1.73;;;28.90;99.90;;;;;;4931344;29;20462;-80
2023/05/05 12:18:38;;;;;;;3.33;1.60;;;29.20;99.90;;;;;;4933371;29;20557;-80
2023/05/05 12:21:13;;;;;;;4.20;1.90;;;29.10;99.90;;;;;;4933975;29;20572;-79
2023/05/05 12:23:39;;;;;;;3.93;1.97;;;28.90;99.90;;;;;;4933897;29;20464;-79
2023/05/05 12:26:05;;;;;;;4.90;2.27;;;28.90;99.90;;;;;;4930871;29;20814;-78
2023/05/05 12:28:47;;;;;;;5.23;2.30;;;28.90;99.60;;;;;;4934181;29;20512;-80
2023/05/05 12:31:12;;;;;;;3.97;2.40;;;28.80;99.50;;;;;;4929116;29;20520;-79
2023/05/05 12:33:41;;;;;;;3.40;1.83;;;28.80;99.60;;;;;;4933346;29;20953;-80
2023/05/05 12:36:08;;;;;;;4.60;1.77;;;28.60;99.10;;;;;;4932850;29;20198;-80
2023/05/05 12:38:34;;;;;;;10.93;3.03;;;28.30;99.90;;;;;;4935536;29;20455;-80
2023/05/05 12:41:01;;;;;;;9.27;1.97;;;27.90;98.00;;;;;;4934719;29;20528;-80
2023/05/05 12:43:29;;;;;;;4.30;2.03;;;27.70;97.50;;;;;;4919090;29;20468;-80
2023/05/05 12:46:08;;;;;;;3.40;1.40;;;27.60;98.60;;;;;;4922864;29;20542;-80
2023/05/05 12:48:36;;;;;;;2.97;1.70;;;27.70;98.30;;;;;;4926283;29;20454;-80
2023/05/05 12:51:20;;;;;;;3.93;1.90;;;28.00;99.50;;;;;;4924806;29;21299;-80
2023/05/05 12:53:46;;;;;;;6.43;2.13;;;28.30;99.10;;;;;;4927588;29;20875;-81
2023/05/05 12:56:47;;;;;;;2.67;1.40;;;28.80;99.90;;;;;;4922562;29;20456;-80
2023/05/05 12:59:22;;;;;;;6.67;1.40;;;29.00;99.90;;;;;;4865903;29;20527;-81
2023/05/05 13:01:50;;;;;;;4.43;1.30;;;29.10;99.90;;;;;;4915389;29;20563;-80
2023/05/05 13:04:16;;;;;;;5.10;1.50;;;29.00;98.80;;;;;;4927550;29;20473;-81
2023/05/05 13:06:43;;;;;;;23.00;2.80;;;29.10;99.90;;;;;;4924379;29;20483;-80
2023/05/05 13:09:24;;;;;;;3.63;1.87;;;29.30;99.10;;;;;;4926459;29;20437;-79
2023/05/05 13:11:50;;;;;;;5.40;2.10;;;29.10;98.00;;;;;;4924222;29;20469;-83
2023/05/05 13:14:15;;;;;;;6.07;2.10;;;28.90;97.80;;;;;;4926239;29;20441;-83
2023/05/05 13:16:41;;;;;;;7.87;1.70;;;28.90;97.70;;;;;;4922066;29;20202;-81
2023/05/05 13:19:06;;;;;;;3.60;1.70;;;28.80;97.60;;;;;;4920212;29;20218;-80
2023/05/05 13:21:32;;;;;;;4.30;2.27;;;28.60;97.20;;;;;;4929977;29;20774;-80
2023/05/05 13:23:58;;;;;;;2.90;1.33;;;28.50;96.50;;;;;;4932291;29;20217;-83
2023/05/05 13:26:23;;;;;;;3.57;1.87;;;28.20;95.60;;;;;;4936853;29;20178;-80
2023/05/05 13:28:49;;;;;;;4.50;2.27;;;28.00;95.60;;;;;;4935167;29;20197;-80
2023/05/05 13:31:15;;;;;;;4.47;1.47;;;27.50;94.40;;;;;;4928252;29;20214;-82
2023/05/05 13:33:40;;;;;;;3.50;1.50;;;27.10;93.60;;;;;;4929811;29;20833;-80
2023/05/05 13:36:06;;;;;;;3.80;1.50;;;26.60;92.60;;;;;;4922684;29;20216;-79
2023/05/05 13:38:32;;;;;;;4.40;1.97;;;26.20;92.80;;;;;;4923373;29;20697;-80
2023/05/05 13:40:58;;;;;;;4.33;1.90;;;25.80;92.30;;;;;;4924132;29;20185;-80
2023/05/05 13:43:24;;;;;;;5.10;1.50;;;25.60;91.80;;;;;;4923531;29;20307;-81
2023/05/05 13:45:50;;;;;;;4.53;1.47;;;25.30;92.10;;;;;;4922498;29;20826;-80
2023/05/05 13:48:16;;;;;;;2.27;1.50;;;25.10;92.20;;;;;;4924912;29;20436;-80
2023/05/05 13:50:41;;;;;;;2.20;1.43;;;25.00;92.60;;;;;;4922698;29;20200;-79
2023/05/05 13:53:07;;;;;;;4.40;2.03;;;24.90;93.10;;;;;;4920949;29;20210;-79
2023/05/05 13:55:32;;;;;;;4.73;2.50;;;24.70;93.70;;;;;;4920815;29;20649;-80
2023/05/05 13:57:58;;;;;;;5.00;2.07;;;24.60;93.40;;;;;;4923366;29;20765;-80
2023/05/05 14:00:23;;;;;;;3.73;2.27;;;24.40;93.90;;;;;;4920263;29;20586;-80
2023/05/05 14:02:49;;;;;;;7.40;2.33;;;24.10;94.50;;;;;;4926027;29;20209;-82